Time;durP1;ratioP1;P1;durP2;ratioP2;P2;SDS_P1;SDS_P2;PMS_P1;PMS_P2;Temp;Humidity;BMP_temperature;BMP_pressure;BME280_temperature;BME280_humidity;BME280_pressure;Samples;Min_cycle;Max_cycle;Signal;HPM_P1;HPM_P2
2021/04/07 00:00:53;;;;;;;2.77;1.73;;;2.60;99.90;;;;;;5020042;28;20937;-46
2021/04/07 00:03:19;;;;;;;2.90;1.40;;;2.60;99.90;;;;;;5019879;28;20929;-47
2021/04/07 00:05:45;;;;;;;3.60;1.53;;;2.70;99.90;;;;;;5020264;28;20711;-49
2021/04/07 00:08:15;;;;;;;3.63;1.40;;;2.60;99.90;;;;;;5020547;28;20453;-48
2021/04/07 00:10:43;;;;;;;2.80;1.53;;;2.70;99.90;;;;;;5020752;28;20487;-48
2021/04/07 00:13:11;;;;;;;2.83;1.37;;;2.70;99.90;;;;;;5021169;28;20456;-52
2021/04/07 00:15:39;;;;;;;6.30;1.77;;;2.70;99.90;;;;;;5020635;28;20471;-51
2021/04/07 00:18:08;;;;;;;6.10;1.73;;;2.60;99.90;;;;;;5019897;28;20481;-52
2021/04/07 00:20:35;;;;;;;2.33;1.30;;;2.60;99.90;;;;;;5025302;28;20456;-46
2021/04/07 00:23:02;;;;;;;2.10;1.60;;;2.60;99.90;;;;;;5026327;28;20453;-47
2021/04/07 00:25:28;;;;;;;3.53;1.53;;;2.50;99.90;;;;;;5025972;28;20463;-49
2021/04/07 00:27:56;;;;;;;1.80;1.60;;;2.50;99.90;;;;;;5026185;28;20980;-47
2021/04/07 00:30:24;;;;;;;2.60;1.53;;;2.50;99.90;;;;;;5026398;28;20520;-46
2021/04/07 00:32:51;;;;;;;3.80;1.20;;;2.40;99.90;;;;;;5026071;28;20449;-51
2021/04/07 00:35:17;;;;;;;2.53;1.47;;;2.50;99.90;;;;;;5025937;28;20440;-54
2021/04/07 00:37:45;;;;;;;2.60;1.87;;;2.50;99.90;;;;;;5026462;28;20984;-49
2021/04/07 00:40:13;;;;;;;3.93;1.53;;;2.50;99.90;;;;;;5026489;28;21024;-48
2021/04/07 00:42:41;;;;;;;6.87;1.80;;;2.50;99.90;;;;;;5023974;28;20440;-49
2021/04/07 00:45:09;;;;;;;3.33;1.60;;;2.60;99.90;;;;;;5023579;28;20445;-48
2021/04/07 00:47:35;;;;;;;5.93;1.57;;;2.60;99.90;;;;;;5025104;28;20456;-47
2021/04/07 00:50:04;;;;;;;1.80;1.53;;;2.60;99.90;;;;;;5024714;28;20469;-47
2021/04/07 00:52:30;;;;;;;3.83;3.03;;;2.60;99.90;;;;;;5026631;28;20835;-45
2021/04/07 00:54:57;;;;;;;7.97;2.60;;;2.50;99.90;;;;;;5026911;28;20448;-52
2021/04/07 00:57:25;;;;;;;5.90;2.17;;;2.50;99.90;;;;;;5026434;28;20456;-50
2021/04/07 00:59:52;;;;;;;4.80;1.53;;;2.50;99.90;;;;;;5025732;28;20460;-46
2021/04/07 01:02:19;;;;;;;3.60;1.67;;;2.40;99.90;;;;;;5027420;28;20444;-46
2021/04/07 01:04:46;;;;;;;3.13;1.60;;;2.40;99.90;;;;;;5025931;28;20460;-49
2021/04/07 01:07:14;;;;;;;4.27;1.60;;;2.40;99.90;;;;;;5024272;28;20471;-47
2021/04/07 01:09:40;;;;;;;4.27;3.53;;;2.50;99.90;;;;;;5022768;28;20978;-50
2021/04/07 01:12:08;;;;;;;2.90;1.27;;;2.60;99.90;;;;;;5023933;28;20484;-49
2021/04/07 01:14:38;;;;;;;10.97;2.73;;;2.60;99.90;;;;;;5025429;28;20794;-45
2021/04/07 01:17:06;;;;;;;2.20;1.40;;;2.60;99.90;;;;;;5024168;28;20517;-47
2021/04/07 01:19:32;;;;;;;6.20;1.60;;;2.60;99.90;;;;;;5025340;28;20468;-48
2021/04/07 01:21:59;;;;;;;3.87;1.57;;;2.50;99.90;;;;;;5023821;28;20769;-46
2021/04/07 01:24:27;;;;;;;4.33;1.90;;;2.50;99.90;;;;;;5024730;28;20456;-49
2021/04/07 01:26:56;;;;;;;3.30;2.00;;;2.60;99.90;;;;;;5026464;28;20441;-51
2021/04/07 01:29:22;;;;;;;6.50;2.23;;;2.60;99.90;;;;;;5025958;28;20440;-46
2021/04/07 01:31:50;;;;;;;3.70;1.67;;;2.50;99.90;;;;;;5022531;28;20481;-48
2021/04/07 01:34:22;;;;;;;4.63;1.87;;;2.50;99.90;;;;;;5024342;28;20456;-49
2021/04/07 01:36:49;;;;;;;5.27;3.47;;;2.50;99.90;;;;;;5025178;28;20433;-47
2021/04/07 01:39:15;;;;;;;3.70;1.40;;;2.50;99.90;;;;;;5025493;28;20456;-45
2021/04/07 01:41:44;;;;;;;4.83;1.57;;;2.50;99.90;;;;;;5025320;28;20436;-50
2021/04/07 01:44:10;;;;;;;5.03;2.60;;;2.50;99.90;;;;;;5023831;28;20445;-47
2021/04/07 01:46:38;;;;;;;6.30;2.00;;;2.50;99.90;;;;;;5023575;28;20453;-49
2021/04/07 01:49:07;;;;;;;3.30;1.77;;;2.50;99.90;;;;;;5023708;28;20449;-48
2021/04/07 01:51:33;;;;;;;5.60;2.73;;;2.60;99.90;;;;;;5025036;28;20480;-45
2021/04/07 01:54:01;;;;;;;4.40;2.33;;;2.50;99.90;;;;;;5025282;28;20460;-49
2021/04/07 01:56:27;;;;;;;6.00;1.70;;;2.50;99.90;;;;;;5025134;28;20464;-49
2021/04/07 01:58:58;;;;;;;2.93;1.73;;;2.40;99.90;;;;;;5023707;28;20921;-48
2021/04/07 02:01:25;;;;;;;3.03;2.03;;;2.50;99.90;;;;;;5023927;28;20453;-51
2021/04/07 02:03:51;;;;;;;4.07;1.23;;;2.40;99.90;;;;;;5023201;28;20461;-47
2021/04/07 02:06:17;;;;;;;3.60;2.43;;;2.50;99.90;;;;;;5023803;28;20457;-48
2021/04/07 02:08:43;;;;;;;3.07;1.90;;;2.50;99.90;;;;;;5024928;28;20511;-47
2021/04/07 02:11:10;;;;;;;3.63;1.80;;;2.40;99.90;;;;;;5023676;28;20815;-49
2021/04/07 02:13:38;;;;;;;5.00;1.83;;;2.50;99.90;;;;;;5022594;28;20449;-48
2021/04/07 02:16:11;;;;;;;3.80;1.60;;;2.50;99.90;;;;;;5022573;28;20465;-48
2021/04/07 02:18:37;;;;;;;4.77;1.33;;;2.50;99.90;;;;;;5025276;28;20456;-48
2021/04/07 02:21:04;;;;;;;6.00;1.43;;;2.40;99.90;;;;;;5025454;28;20441;-48
2021/04/07 02:23:30;;;;;;;4.37;2.30;;;2.40;99.90;;;;;;5024517;28;20449;-47
2021/04/07 02:25:57;;;;;;;3.23;2.13;;;2.40;99.90;;;;;;5025982;28;20441;-48
2021/04/07 02:28:23;;;;;;;14.30;3.73;;;2.30;99.90;;;;;;5023903;28;20833;-52
2021/04/07 02:30:51;;;;;;;3.23;1.73;;;2.30;99.90;;;;;;5022832;28;20491;-48
2021/04/07 02:33:19;;;;;;;6.07;2.20;;;2.30;99.90;;;;;;5023052;28;20447;-47
2021/04/07 02:35:45;;;;;;;5.67;2.30;;;2.30;99.90;;;;;;5024760;28;20445;-49
2021/04/07 02:38:12;;;;;;;2.70;2.10;;;2.40;99.90;;;;;;5024579;28;20461;-47
2021/04/07 02:40:38;;;;;;;5.20;1.80;;;2.40;99.90;;;;;;5025462;28;20899;-46
2021/04/07 02:43:06;;;;;;;4.90;2.40;;;2.40;99.90;;;;;;5022799;28;20495;-51
2021/04/07 02:45:32;;;;;;;3.67;2.23;;;2.50;99.90;;;;;;5022236;28;20984;-49
2021/04/07 02:47:59;;;;;;;3.50;1.80;;;2.40;99.90;;;;;;5022979;28;20460;-47
2021/04/07 02:50:26;;;;;;;3.93;1.93;;;2.40;99.90;;;;;;5024214;28;20495;-48
2021/04/07 02:52:52;;;;;;;4.93;2.07;;;2.40;99.90;;;;;;5023157;28;20463;-49
2021/04/07 02:55:21;;;;;;;6.60;1.83;;;2.30;99.90;;;;;;5024295;28;20793;-47
2021/04/07 02:57:47;;;;;;;5.50;1.50;;;2.30;99.90;;;;;;5023976;28;20444;-48
2021/04/07 03:00:15;;;;;;;3.10;2.03;;;2.30;99.90;;;;;;5022286;28;20503;-48
2021/04/07 03:02:41;;;;;;;4.40;1.80;;;2.30;99.90;;;;;;5022514;28;20445;-48
2021/04/07 03:05:08;;;;;;;8.87;2.40;;;2.30;99.90;;;;;;5023027;28;20456;-48
2021/04/07 03:07:39;;;;;;;3.57;2.47;;;2.40;99.90;;;;;;5022274;28;20441;-46
2021/04/07 03:10:06;;;;;;;4.63;2.37;;;2.40;99.90;;;;;;5023823;28;20473;-47
2021/04/07 03:12:32;;;;;;;2.87;2.10;;;2.40;99.90;;;;;;5023040;28;20446;-46
2021/04/07 03:14:59;;;;;;;4.97;2.43;;;2.40;99.90;;;;;;5023522;28;20457;-50
2021/04/07 03:17:25;;;;;;;3.40;2.50;;;2.40;99.90;;;;;;5023811;28;20473;-48
2021/04/07 03:19:51;;;;;;;7.23;2.90;;;2.30;99.90;;;;;;5024807;28;20463;-48
2021/04/07 03:22:17;;;;;;;6.87;2.30;;;2.30;99.90;;;;;;5024700;28;20461;-49
2021/04/07 03:24:44;;;;;;;3.93;2.27;;;2.30;99.90;;;;;;5023952;28;20773;-52
2021/04/07 03:27:10;;;;;;;4.27;2.10;;;2.30;99.90;;;;;;5023590;28;20465;-50
2021/04/07 03:29:36;;;;;;;5.73;1.90;;;2.30;99.90;;;;;;5023351;28;20456;-51
2021/04/07 03:32:03;;;;;;;8.33;1.83;;;2.30;99.90;;;;;;5023525;28;20477;-47
2021/04/07 03:34:29;;;;;;;4.20;1.93;;;2.30;99.90;;;;;;5023037;28;20445;-46
2021/04/07 03:36:55;;;;;;;6.40;2.70;;;2.30;99.90;;;;;;5024100;28;20755;-48
2021/04/07 03:39:21;;;;;;;3.30;1.90;;;2.30;99.90;;;;;;5022833;28;20477;-50
2021/04/07 03:41:48;;;;;;;5.60;2.37;;;2.30;99.90;;;;;;5023186;28;20440;-48
2021/04/07 03:44:14;;;;;;;5.87;2.83;;;2.30;99.90;;;;;;5022635;28;20444;-47
2021/04/07 03:46:40;;;;;;;18.00;2.70;;;2.30;99.90;;;;;;5024102;28;20492;-46
2021/04/07 03:49:07;;;;;;;4.47;1.93;;;2.30;99.90;;;;;;5025022;28;20453;-47
2021/04/07 03:51:33;;;;;;;3.60;1.80;;;2.30;99.90;;;;;;5023554;28;20477;-46
2021/04/07 03:53:59;;;;;;;3.33;1.80;;;2.30;99.90;;;;;;5022519;28;20841;-48
2021/04/07 03:56:27;;;;;;;6.77;2.77;;;2.30;99.90;;;;;;5023083;28;20464;-48
2021/04/07 03:58:54;;;;;;;3.93;2.53;;;2.30;99.90;;;;;;5022933;28;20463;-46
2021/04/07 04:01:21;;;;;;;3.57;2.20;;;2.30;99.90;;;;;;5022624;28;20440;-46
2021/04/07 04:03:47;;;;;;;3.23;2.30;;;2.40;99.90;;;;;;5022707;28;20440;-52
2021/04/07 04:06:13;;;;;;;4.80;1.80;;;2.40;99.90;;;;;;5023530;28;20444;-48
2021/04/07 04:08:39;;;;;;;8.07;2.37;;;2.30;99.90;;;;;;5024232;28;20456;-48
2021/04/07 04:11:05;;;;;;;4.47;2.10;;;2.30;99.90;;;;;;5022496;28;20489;-47
2021/04/07 04:13:31;;;;;;;4.70;2.77;;;2.30;99.90;;;;;;5023112;28;20481;-46
2021/04/07 04:15:59;;;;;;;6.27;3.17;;;2.30;99.90;;;;;;5021009;28;20445;-47
2021/04/07 04:18:25;;;;;;;3.97;2.53;;;2.40;99.90;;;;;;5021271;28;20499;-53
2021/04/07 04:20:52;;;;;;;5.33;2.50;;;2.50;99.90;;;;;;5021522;28;20523;-51
2021/04/07 04:23:18;;;;;;;4.07;2.23;;;2.50;99.90;;;;;;5023346;28;20460;-50
2021/04/07 04:25:44;;;;;;;6.30;3.10;;;2.40;99.90;;;;;;5023317;28;20445;-47
2021/04/07 04:28:10;;;;;;;9.50;2.30;;;2.40;99.90;;;;;;5024851;28;20468;-47
2021/04/07 04:30:36;;;;;;;3.77;2.83;;;2.40;99.90;;;;;;5025471;28;20485;-46
2021/04/07 04:33:04;;;;;;;4.07;2.00;;;2.40;99.90;;;;;;5025549;28;20437;-46
2021/04/07 04:35:30;;;;;;;10.27;3.13;;;2.30;99.90;;;;;;5023988;28;20472;-47
2021/04/07 04:37:56;;;;;;;5.80;2.13;;;2.20;99.90;;;;;;5022106;28;20763;-48
2021/04/07 04:40:22;;;;;;;2.70;2.00;;;2.30;99.90;;;;;;5022678;28;20984;-46
2021/04/07 04:42:49;;;;;;;11.43;3.93;;;2.40;99.90;;;;;;5022465;28;20480;-49
2021/04/07 04:45:16;;;;;;;3.20;2.27;;;2.40;99.90;;;;;;5025205;28;20472;-46
2021/04/07 04:47:42;;;;;;;6.53;2.37;;;2.40;99.90;;;;;;5025400;28;20921;-51
2021/04/07 04:50:11;;;;;;;7.20;2.97;;;2.30;99.90;;;;;;5023819;28;20536;-49
2021/04/07 04:52:37;;;;;;;8.47;3.27;;;2.30;99.90;;;;;;5023416;28;20441;-47
2021/04/07 04:55:04;;;;;;;9.90;3.40;;;2.20;99.90;;;;;;5023934;28;20445;-48
2021/04/07 04:57:32;;;;;;;6.33;2.37;;;2.30;99.90;;;;;;5023123;28;20456;-46
2021/04/07 04:59:58;;;;;;;5.20;2.83;;;2.30;99.90;;;;;;5021472;28;20461;-49
2021/04/07 05:02:26;;;;;;;4.73;2.00;;;2.40;99.90;;;;;;5022514;28;20515;-45
2021/04/07 05:04:52;;;;;;;9.17;2.30;;;2.40;99.90;;;;;;5024513;28;20930;-46
2021/04/07 05:07:19;;;;;;;6.73;2.27;;;2.40;99.90;;;;;;5025369;28;20445;-46
2021/04/07 05:09:45;;;;;;;5.50;2.70;;;2.40;99.90;;;;;;5025374;28;20456;-45
2021/04/07 05:12:12;;;;;;;7.23;2.77;;;2.40;99.90;;;;;;5024109;28;20481;-46
2021/04/07 05:14:38;;;;;;;12.47;2.50;;;2.50;99.90;;;;;;5025141;28;20445;-45
2021/04/07 05:17:04;;;;;;;11.20;3.30;;;2.50;99.90;;;;;;5027886;28;20469;-45
2021/04/07 05:19:30;;;;;;;11.80;3.30;;;2.40;99.90;;;;;;5027220;28;20445;-45
2021/04/07 05:21:56;;;;;;;5.67;2.57;;;2.40;99.90;;;;;;5027203;28;20445;-45
2021/04/07 05:24:23;;;;;;;5.30;2.43;;;2.40;99.90;;;;;;5027496;28;20452;-49
2021/04/07 05:26:50;;;;;;;10.03;3.10;;;2.40;99.90;;;;;;5025492;28;20524;-51
2021/04/07 05:29:16;;;;;;;4.83;2.53;;;2.40;99.90;;;;;;5025728;28;20441;-47
2021/04/07 05:31:42;;;;;;;5.93;2.20;;;2.40;99.90;;;;;;5024868;28;20473;-50
2021/04/07 05:34:09;;;;;;;5.80;2.60;;;2.40;99.90;;;;;;5025299;28;20514;-49
2021/04/07 05:36:35;;;;;;;6.87;2.40;;;2.50;99.90;;;;;;5025910;28;20483;-49
2021/04/07 05:39:01;;;;;;;7.50;2.40;;;2.40;99.90;;;;;;5027192;28;20491;-46
2021/04/07 05:41:28;;;;;;;8.13;2.23;;;2.40;99.90;;;;;;5026564;28;20457;-47
2021/04/07 05:43:55;;;;;;;6.37;2.90;;;2.30;99.90;;;;;;5026848;28;20441;-47
2021/04/07 05:46:21;;;;;;;5.73;2.60;;;2.30;99.90;;;;;;5025981;28;20861;-48
2021/04/07 05:48:47;;;;;;;3.20;1.73;;;2.30;99.90;;;;;;5027283;28;20445;-47
2021/04/07 05:51:16;;;;;;;9.43;2.47;;;2.20;99.90;;;;;;5028813;28;20511;-47
2021/04/07 05:53:42;;;;;;;4.40;3.20;;;2.20;99.90;;;;;;5026404;28;20456;-49
2021/04/07 05:56:08;;;;;;;7.17;2.53;;;2.30;99.90;;;;;;5025512;28;20441;-50
2021/04/07 05:58:35;;;;;;;5.00;2.50;;;2.30;99.90;;;;;;5026663;28;20453;-49
2021/04/07 06:01:01;;;;;;;4.27;2.40;;;2.30;99.90;;;;;;5027590;28;20764;-49
2021/04/07 06:03:28;;;;;;;8.07;2.20;;;2.20;99.90;;;;;;5027432;28;20899;-52
2021/04/07 06:05:54;;;;;;;2.93;1.97;;;2.20;99.90;;;;;;5026095;28;20445;-47
2021/04/07 06:08:20;;;;;;;7.97;3.40;;;2.30;99.90;;;;;;5027380;28;20449;-47
2021/04/07 06:10:47;;;;;;;6.33;2.87;;;2.30;99.90;;;;;;5025948;28;21023;-47
2021/04/07 06:13:15;;;;;;;4.90;2.10;;;2.30;99.90;;;;;;5025340;28;20479;-46
2021/04/07 06:15:43;;;;;;;6.23;2.37;;;2.50;99.90;;;;;;5026926;28;20516;-46
2021/04/07 06:18:12;;;;;;;8.87;2.93;;;2.60;99.90;;;;;;5023888;28;20485;-53
2021/04/07 06:20:40;;;;;;;9.33;3.60;;;2.60;99.90;;;;;;5025936;28;20449;-50
2021/04/07 06:23:08;;;;;;;5.97;2.50;;;2.70;99.90;;;;;;5026420;28;20450;-47
2021/04/07 06:25:35;;;;;;;6.40;3.37;;;2.70;99.90;;;;;;5024647;28;20452;-47
2021/04/07 06:28:03;;;;;;;8.13;2.43;;;2.70;99.90;;;;;;5024230;28;20461;-46
2021/04/07 06:30:43;;;;;;;5.53;2.30;;;2.80;99.90;;;;;;5024350;28;20446;-46
2021/04/07 06:33:14;;;;;;;2.03;1.60;;;2.80;99.90;;;;;;5024456;28;20441;-46
2021/04/07 06:35:40;;;;;;;3.30;2.20;;;2.80;99.90;;;;;;5026375;28;20441;-46
2021/04/07 06:38:07;;;;;;;8.63;3.63;;;2.80;99.90;;;;;;5026374;28;20441;-47
2021/04/07 06:40:33;;;;;;;6.40;2.93;;;2.80;99.90;;;;;;5022930;28;20457;-47
2021/04/07 06:43:01;;;;;;;6.47;2.43;;;2.90;99.90;;;;;;5024047;28;20445;-45
2021/04/07 06:45:27;;;;;;;6.67;2.40;;;3.10;99.90;;;;;;5025233;28;20498;-47
2021/04/07 06:47:55;;;;;;;5.70;2.00;;;3.10;99.90;;;;;;5025203;28;20500;-46
2021/04/07 06:50:25;;;;;;;3.77;1.73;;;3.00;99.90;;;;;;5024802;28;20548;-48
2021/04/07 06:52:55;;;;;;;9.30;2.10;;;3.00;99.90;;;;;;5024679;28;20475;-53
2021/04/07 06:55:21;;;;;;;7.23;1.87;;;3.00;99.90;;;;;;5023902;28;20456;-51
2021/04/07 06:57:48;;;;;;;6.60;1.73;;;2.90;99.90;;;;;;5023798;28;20597;-49
2021/04/07 07:00:15;;;;;;;4.40;2.07;;;2.90;99.90;;;;;;5024570;28;20445;-46
2021/04/07 07:02:44;;;;;;;8.00;2.90;;;2.90;99.90;;;;;;5025042;28;20460;-48
2021/04/07 07:05:12;;;;;;;7.10;2.07;;;3.00;99.90;;;;;;5023878;28;20531;-46
2021/04/07 07:07:39;;;;;;;13.60;3.00;;;3.00;99.90;;;;;;5023072;28;20504;-50
2021/04/07 07:10:06;;;;;;;9.17;2.87;;;3.10;99.90;;;;;;5022170;28;20480;-48
2021/04/07 07:12:33;;;;;;;9.33;3.33;;;3.20;99.90;;;;;;5022104;28;20564;-48
2021/04/07 07:15:02;;;;;;;4.87;1.70;;;3.30;99.90;;;;;;5023371;28;20467;-47
2021/04/07 07:17:30;;;;;;;3.63;2.63;;;3.10;99.90;;;;;;5025302;28;20543;-48
2021/04/07 07:19:56;;;;;;;6.60;4.07;;;2.70;99.90;;;;;;5027524;28;20460;-45
2021/04/07 07:22:25;;;;;;;6.30;2.20;;;2.60;99.90;;;;;;5027631;28;20453;-46
2021/04/07 07:24:54;;;;;;;3.20;1.73;;;2.40;99.90;;;;;;5027647;28;20767;-48
2021/04/07 07:27:33;;;;;;;2.83;1.83;;;2.30;99.90;;;;;;5025159;28;20445;-46
2021/04/07 07:30:00;;;;;;;12.33;4.53;;;2.40;99.90;;;;;;5023624;28;20444;-51
2021/04/07 07:32:33;;;;;;;8.80;2.70;;;2.50;99.90;;;;;;5023309;28;20480;-50
2021/04/07 07:35:11;;;;;;;4.93;3.27;;;2.70;99.90;;;;;;5024044;28;20456;-49
2021/04/07 07:37:38;;;;;;;9.90;3.30;;;2.80;99.90;;;;;;5023329;28;20463;-50
2021/04/07 07:40:20;;;;;;;3.47;2.47;;;2.80;99.90;;;;;;5023261;28;20468;-47
2021/04/07 07:42:47;;;;;;;11.43;4.00;;;2.90;99.90;;;;;;5021947;28;20452;-53
2021/04/07 07:45:15;;;;;;;6.20;3.33;;;3.00;99.90;;;;;;5021130;28;20460;-53
2021/04/07 07:47:44;;;;;;;6.63;2.70;;;3.00;99.90;;;;;;5021580;28;20453;-52
2021/04/07 07:50:12;;;;;;;7.37;3.30;;;3.10;99.90;;;;;;5025633;28;20430;-50
2021/04/07 07:52:43;;;;;;;8.40;2.83;;;3.30;99.90;;;;;;5029665;28;20481;-53
2021/04/07 07:55:15;;;;;;;8.27;3.47;;;3.40;99.90;;;;;;5030199;28;20521;-51
2021/04/07 07:57:51;;;;;;;6.60;3.13;;;3.40;99.90;;;;;;5023364;28;20438;-51
2021/04/07 08:00:18;;;;;;;8.10;2.87;;;3.40;99.90;;;;;;5017222;28;20441;-48
2021/04/07 08:02:48;;;;;;;6.33;3.03;;;3.40;99.90;;;;;;5038414;28;20464;-50
2021/04/07 08:05:16;;;;;;;4.60;2.63;;;3.40;99.90;;;;;;5027944;28;20482;-52
2021/04/07 08:07:43;;;;;;;7.60;3.70;;;3.60;99.90;;;;;;5036983;28;20457;-53
2021/04/07 08:10:11;;;;;;;4.27;2.80;;;3.70;99.90;;;;;;5025132;28;20444;-53
2021/04/07 08:12:39;;;;;;;4.67;2.73;;;3.70;99.90;;;;;;5023865;28;20466;-51
2021/04/07 08:15:07;;;;;;;4.77;2.13;;;3.70;99.90;;;;;;5027387;28;20454;-49
2021/04/07 08:17:34;;;;;;;7.20;2.77;;;3.70;99.90;;;;;;5031589;28;20464;-49
2021/04/07 08:20:03;;;;;;;5.57;2.40;;;3.80;99.90;;;;;;5031682;28;21151;-56
2021/04/07 08:22:34;;;;;;;3.13;1.97;;;4.00;99.90;;;;;;5023029;28;20446;-48
2021/04/07 08:25:02;;;;;;;8.27;2.57;;;4.40;99.90;;;;;;5033923;28;20433;-47
2021/04/07 08:27:29;;;;;;;3.60;1.93;;;4.50;99.90;;;;;;5031705;28;20429;-48
2021/04/07 08:29:58;;;;;;;8.93;2.53;;;4.60;99.90;;;;;;5028402;28;20446;-48
2021/04/07 08:32:25;;;;;;;8.67;2.20;;;4.70;99.90;;;;;;5031786;28;20508;-48
2021/04/07 08:34:52;;;;;;;5.20;1.60;;;4.90;99.90;;;;;;5025304;28;20461;-50
2021/04/07 08:37:25;;;;;;;8.80;2.40;;;5.00;99.90;;;;;;5029353;28;20500;-53
2021/04/07 08:39:52;;;;;;;6.27;1.70;;;5.30;99.90;;;;;;5037853;28;20465;-51
2021/04/07 08:42:19;;;;;;;4.33;2.13;;;5.20;99.90;;;;;;5040688;28;20433;-51
2021/04/07 08:44:46;;;;;;;8.47;2.40;;;5.10;99.90;;;;;;5029019;28;20449;-51
2021/04/07 08:47:25;;;;;;;5.53;2.30;;;5.10;99.90;;;;;;5032736;28;20458;-48
2021/04/07 08:50:02;;;;;;;6.60;2.37;;;4.90;99.90;;;;;;5027513;28;20521;-51
2021/04/07 08:52:29;;;;;;;2.60;2.13;;;4.70;99.90;;;;;;5027148;28;20497;-51
2021/04/07 08:54:58;;;;;;;6.90;2.13;;;4.70;99.90;;;;;;5037633;28;20721;-48
2021/04/07 08:57:29;;;;;;;5.43;2.30;;;4.70;99.90;;;;;;5040220;28;20445;-50
2021/04/07 08:59:57;;;;;;;7.37;3.00;;;4.70;99.90;;;;;;5040565;28;20439;-50
2021/04/07 09:02:24;;;;;;;5.43;2.20;;;4.60;99.90;;;;;;5035260;28;20473;-48
2021/04/07 09:05:02;;;;;;;3.20;2.17;;;4.80;99.90;;;;;;5039118;28;20479;-47
2021/04/07 09:07:39;;;;;;;13.10;2.90;;;4.90;99.90;;;;;;5030534;28;20434;-46
2021/04/07 09:10:14;;;;;;;5.10;2.53;;;5.10;99.90;;;;;;5029395;28;20437;-47
2021/04/07 09:12:42;;;;;;;6.83;2.37;;;5.10;99.90;;;;;;5031154;28;20449;-47
2021/04/07 09:15:16;;;;;;;4.83;1.43;;;5.20;99.90;;;;;;5039866;28;20448;-48
2021/04/07 09:17:45;;;;;;;2.83;2.00;;;5.20;99.90;;;;;;5040220;28;20476;-49
2021/04/07 09:20:33;;;;;;;5.17;2.03;;;5.80;99.90;;;;;;5032283;28;20438;-57
2021/04/07 09:23:17;;;;;;;3.27;1.60;;;6.00;99.90;;;;;;5034872;28;20452;-48
2021/04/07 09:25:49;;;;;;;4.63;1.40;;;6.20;99.90;;;;;;5017724;28;20421;-49
2021/04/07 09:28:16;;;;;;;1.67;1.40;;;6.00;99.90;;;;;;5029477;28;20447;-48
2021/04/07 09:30:47;;;;;;;5.53;2.10;;;5.70;99.90;;;;;;5030290;28;20465;-49
2021/04/07 09:33:19;;;;;;;6.87;2.17;;;5.40;99.90;;;;;;5035712;28;20481;-51
2021/04/07 09:35:57;;;;;;;4.53;1.93;;;5.30;99.90;;;;;;5030263;28;20465;-49
2021/04/07 09:38:23;;;;;;;7.00;1.87;;;5.40;99.90;;;;;;5027437;28;20442;-51
2021/04/07 09:41:01;;;;;;;7.83;1.80;;;5.50;99.90;;;;;;5039442;28;20429;-49
2021/04/07 09:43:27;;;;;;;14.00;3.20;;;5.60;99.90;;;;;;5013115;28;20505;-51
2021/04/07 09:45:56;;;;;;;3.63;1.80;;;5.50;99.90;;;;;;5029206;28;20446;-51
2021/04/07 09:48:34;;;;;;;2.80;1.67;;;5.70;99.90;;;;;;5039100;28;20436;-52
2021/04/07 09:51:15;;;;;;;5.93;2.43;;;5.90;99.90;;;;;;5021182;28;20532;-49
2021/04/07 09:53:42;;;;;;;3.83;1.57;;;6.00;99.90;;;;;;5024738;28;20425;-51
2021/04/07 09:56:08;;;;;;;10.73;3.30;;;6.40;99.90;;;;;;5021648;28;20484;-52
2021/04/07 09:58:42;;;;;;;6.90;2.53;;;7.00;99.90;;;;;;5024569;28;20906;-53
2021/04/07 10:01:08;;;;;;;9.13;2.93;;;7.00;99.90;;;;;;5023254;28;20491;-52
2021/04/07 10:03:35;;;;;;;6.20;2.23;;;7.70;99.90;;;;;;5023602;28;20822;-47
2021/04/07 10:06:02;;;;;;;6.07;2.07;;;7.70;99.90;;;;;;5023527;28;20468;-47
2021/04/07 10:08:29;;;;;;;7.87;1.83;;;7.50;99.90;;;;;;5023086;28;20433;-49
2021/04/07 10:11:07;;;;;;;4.57;2.00;;;7.60;99.90;;;;;;5021363;28;20449;-50
2021/04/07 10:13:34;;;;;;;12.60;3.43;;;8.40;99.90;;;;;;5021441;28;20471;-47
2021/04/07 10:16:01;;;;;;;10.37;3.13;;;9.50;98.10;;;;;;5021115;28;20898;-47
2021/04/07 10:18:27;;;;;;;6.13;2.60;;;9.70;95.60;;;;;;5020557;28;20515;-52
2021/04/07 10:20:55;;;;;;;2.90;2.00;;;9.60;94.90;;;;;;5020486;28;20449;-50
2021/04/07 10:23:22;;;;;;;5.47;2.50;;;10.10;90.70;;;;;;5020127;28;20898;-54
2021/04/07 10:25:53;;;;;;;9.07;2.57;;;9.70;89.90;;;;;;5020625;28;20524;-49
2021/04/07 10:28:20;;;;;;;8.03;2.53;;;8.90;89.50;;;;;;5021041;28;20602;-53
2021/04/07 10:30:46;;;;;;;4.33;1.87;;;8.80;91.10;;;;;;5021230;28;20453;-49
2021/04/07 10:33:25;;;;;;;3.63;2.40;;;9.30;91.20;;;;;;5019945;28;20464;-50
2021/04/07 10:35:59;;;;;;;8.63;2.30;;;9.70;90.60;;;;;;5019854;28;20441;-48
2021/04/07 10:38:29;;;;;;;9.93;3.10;;;10.30;87.50;;;;;;5019619;28;20460;-50
2021/04/07 10:40:59;;;;;;;7.10;2.20;;;9.60;86.70;;;;;;5020487;28;20834;-48
2021/04/07 10:43:31;;;;;;;6.13;2.10;;;8.90;88.10;;;;;;5020860;28;20458;-50
2021/04/07 10:45:58;;;;;;;4.60;2.97;;;8.30;89.10;;;;;;5021188;28;20518;-47
2021/04/07 10:48:25;;;;;;;5.43;2.67;;;8.00;90.30;;;;;;5021167;28;20577;-46
2021/04/07 10:50:52;;;;;;;4.20;1.83;;;7.80;92.20;;;;;;5021004;28;20852;-47
2021/04/07 10:53:38;;;;;;;2.27;1.80;;;8.00;93.40;;;;;;5019821;28;20461;-50
2021/04/07 10:56:15;;;;;;;2.20;1.50;;;8.50;91.20;;;;;;5020993;28;20440;-49
2021/04/07 10:58:45;;;;;;;5.83;1.93;;;8.00;89.90;;;;;;5021585;28;20455;-49
2021/04/07 11:01:12;;;;;;;3.67;2.00;;;7.50;90.80;;;;;;5024470;28;20921;-47
2021/04/07 11:03:41;;;;;;;3.53;1.43;;;7.00;92.50;;;;;;5023760;28;20896;-47
2021/04/07 11:06:07;;;;;;;7.57;2.00;;;6.90;93.90;;;;;;5022966;28;20442;-52
2021/04/07 11:08:36;;;;;;;3.40;1.80;;;6.80;95.20;;;;;;5022636;28;20457;-50
2021/04/07 11:11:04;;;;;;;3.97;2.00;;;6.70;95.30;;;;;;5023587;28;20461;-49
2021/04/07 11:13:31;;;;;;;3.13;1.60;;;6.50;95.10;;;;;;5023319;28;20464;-50
2021/04/07 11:16:08;;;;;;;4.53;1.70;;;6.40;95.10;;;;;;5022488;28;20476;-49
2021/04/07 11:18:39;;;;;;;4.40;1.90;;;6.40;95.60;;;;;;5014786;23;21008;-49
2021/04/07 11:21:06;;;;;;;4.13;1.40;;;6.40;96.70;;;;;;5021180;28;20452;-47
2021/04/07 11:23:35;;;;;;;3.50;1.63;;;6.20;97.80;;;;;;5024105;28;20437;-48
2021/04/07 11:26:02;;;;;;;2.67;1.50;;;6.10;98.20;;;;;;5024751;28;20461;-50
2021/04/07 11:28:29;;;;;;;2.70;1.60;;;6.00;99.10;;;;;;5022927;28;20465;-49
2021/04/07 11:31:00;;;;;;;3.63;1.53;;;6.00;99.70;;;;;;5025787;28;20452;-47
2021/04/07 11:33:34;;;;;;;4.83;1.63;;;5.80;99.90;;;;;;5024986;28;20898;-48
2021/04/07 11:36:06;;;;;;;2.10;1.20;;;5.80;99.90;;;;;;5022977;28;20484;-52
2021/04/07 11:38:33;;;;;;;4.97;1.90;;;5.90;99.90;;;;;;5023335;28;20482;-49
2021/04/07 11:46:34;;;;;;;2.40;1.53;;;6.20;99.90;;;;;;5022868;28;20731;-49
2021/04/07 11:49:00;;;;;;;6.10;1.50;;;6.20;99.90;;;;;;5022928;28;20451;-48
2021/04/07 11:51:36;;;;;;;1.50;1.00;;;6.20;99.90;;;;;;5023137;28;20568;-52
2021/04/07 11:54:03;;;;;;;2.90;1.40;;;6.10;99.90;;;;;;5025667;28;20429;-48
2021/04/07 11:56:30;;;;;;;5.80;1.70;;;5.90;99.90;;;;;;5026773;28;20520;-52
2021/04/07 11:58:57;;;;;;;5.90;1.33;;;5.80;99.90;;;;;;5027007;28;20445;-50
2021/04/07 12:01:23;;;;;;;2.90;1.50;;;5.70;99.90;;;;;;5025944;28;20441;-51
2021/04/07 12:03:50;;;;;;;4.70;1.43;;;5.80;99.90;;;;;;5025805;28;20523;-52
2021/04/07 12:06:16;;;;;;;2.90;1.20;;;5.90;99.90;;;;;;5025387;28;20517;-52
2021/04/07 12:08:43;;;;;;;1.40;1.13;;;5.70;99.90;;;;;;5026018;28;20463;-50
2021/04/07 12:11:09;;;;;;;4.90;1.97;;;5.70;99.90;;;;;;5026859;28;20750;-48
2021/04/07 12:13:37;;;;;;;3.57;1.03;;;5.60;99.90;;;;;;5025325;28;20449;-50
2021/04/07 12:16:04;;;;;;;3.83;1.07;;;5.70;99.90;;;;;;5022819;28;20441;-49
2021/04/07 12:18:34;;;;;;;1.90;0.90;;;5.90;99.90;;;;;;5022908;28;20848;-52
2021/04/07 12:21:01;;;;;;;1.63;1.00;;;6.00;99.90;;;;;;5003664;28;20453;-54
2021/04/07 12:23:28;;;;;;;7.43;1.77;;;6.10;99.90;;;;;;5003913;28;20519;-49
2021/04/07 12:25:59;;;;;;;2.70;1.00;;;6.20;99.90;;;;;;5003366;28;20537;-50
2021/04/07 12:28:28;;;;;;;3.10;1.60;;;6.30;99.90;;;;;;5004963;28;20450;-49
2021/04/07 12:30:56;;;;;;;2.70;1.30;;;6.20;99.90;;;;;;5002691;28;20526;-53
2021/04/07 12:33:26;;;;;;;11.90;1.53;;;6.30;99.90;;;;;;5002729;28;20496;-48
2021/04/07 12:35:53;;;;;;;3.10;1.37;;;6.30;99.90;;;;;;5003061;28;20454;-50
2021/04/07 12:38:19;;;;;;;2.07;1.30;;;6.30;99.90;;;;;;5001725;28;20926;-48
2021/04/07 12:40:48;;;;;;;4.00;1.47;;;6.30;99.90;;;;;;5002660;28;20462;-49
2021/04/07 12:43:15;;;;;;;2.90;1.53;;;6.30;99.90;;;;;;5001678;28;20730;-49
2021/04/07 12:45:41;;;;;;;4.80;1.33;;;6.30;99.90;;;;;;5002111;28;20449;-52
2021/04/07 12:48:09;;;;;;;3.53;1.83;;;6.50;99.90;;;;;;5001369;28;20981;-48
2021/04/07 12:50:36;;;;;;;2.50;1.27;;;6.60;99.90;;;;;;4984222;28;20472;-52
2021/04/07 12:53:03;;;;;;;6.27;1.80;;;6.60;99.90;;;;;;5001509;28;20497;-51
2021/04/07 12:55:30;;;;;;;3.10;1.60;;;6.70;99.90;;;;;;5001233;28;20454;-49
2021/04/07 12:57:58;;;;;;;4.00;1.53;;;6.70;99.90;;;;;;5002596;28;20449;-48
2021/04/07 13:00:25;;;;;;;5.40;2.03;;;6.60;99.90;;;;;;5002693;28;20854;-51
2021/04/07 13:02:51;;;;;;;2.17;1.53;;;6.60;99.90;;;;;;5001679;28;20446;-48
2021/04/07 13:05:19;;;;;;;2.27;1.40;;;6.50;99.90;;;;;;5003991;28;20461;-52